createdAt,value
2018-03-27T00:01:46.601Z,24.93
2018-03-27T00:04:12.637Z,26.87
2018-03-27T00:06:38.747Z,25.07
2018-03-27T00:09:04.775Z,23.57
2018-03-27T00:11:31.035Z,23.90
2018-03-27T00:13:57.108Z,24.77
2018-03-27T00:16:23.165Z,22.00
2018-03-27T00:18:49.274Z,24.30
2018-03-27T00:21:15.313Z,24.80
2018-03-27T00:23:41.371Z,22.57
2018-03-27T00:26:07.519Z,23.17
2018-03-27T00:28:45.732Z,24.73
2018-03-27T00:31:24.209Z,23.53
2018-03-27T00:34:02.753Z,25.63
2018-03-27T00:36:41.249Z,24.07
2018-03-27T00:39:19.778Z,23.30
2018-03-27T00:44:58.153Z,23.90
2018-03-27T00:47:24.239Z,24.23
2018-03-27T00:49:50.286Z,22.33
2018-03-27T00:52:16.321Z,22.53
2018-03-27T00:54:42.421Z,23.47
2018-03-27T00:57:08.460Z,23.77
2018-03-27T00:59:34.505Z,22.87
2018-03-27T01:02:00.589Z,23.30
2018-03-27T01:04:26.659Z,24.40
2018-03-27T01:06:52.687Z,22.50
2018-03-27T01:09:18.765Z,24.40
2018-03-27T01:11:44.835Z,23.43
2018-03-27T01:14:10.900Z,22.67
2018-03-27T01:16:36.922Z,25.17
2018-03-27T01:19:02.992Z,23.83
2018-03-27T01:21:29.045Z,22.57
2018-03-27T01:23:55.081Z,20.73
2018-03-27T01:26:21.127Z,21.07
2018-03-27T01:28:47.199Z,24.10
2018-03-27T01:31:13.258Z,23.67
2018-03-27T01:33:39.330Z,24.00
2018-03-27T01:36:05.388Z,23.70
2018-03-27T01:38:31.560Z,20.53
2018-03-27T01:40:57.614Z,24.67
2018-03-27T01:43:23.679Z,20.30
2018-03-27T01:45:49.851Z,23.23
2018-03-27T01:48:15.901Z,24.30
2018-03-27T01:50:41.968Z,25.73
2018-03-27T01:53:07.994Z,24.23
2018-03-27T01:55:34.059Z,23.27
2018-03-27T01:58:00.274Z,26.10
2018-03-27T02:00:26.363Z,22.37
2018-03-27T02:02:52.420Z,22.43
2018-03-27T02:05:18.472Z,22.93
2018-03-27T02:07:44.596Z,24.27
2018-03-27T02:10:10.826Z,21.50
2018-03-27T02:12:42.950Z,21.13
2018-03-27T02:15:14.964Z,22.40
2018-03-27T02:17:47.173Z,20.87
2018-03-27T02:20:19.572Z,17.83
2018-03-27T02:22:51.818Z,19.93
2018-03-27T02:25:17.873Z,19.90
2018-03-27T02:27:44.085Z,21.40
2018-03-27T02:30:10.087Z,20.67
2018-03-27T02:32:36.141Z,21.00
2018-03-27T02:35:02.180Z,20.17
2018-03-27T02:37:28.257Z,17.37
2018-03-27T02:39:54.278Z,18.27
2018-03-27T02:42:20.528Z,18.90
2018-03-27T02:44:46.599Z,19.30
2018-03-27T02:47:12.768Z,20.17
2018-03-27T02:49:38.932Z,18.93
2018-03-27T02:52:04.952Z,21.57
2018-03-27T02:54:30.989Z,21.97
2018-03-27T02:56:57.181Z,22.70
2018-03-27T02:59:23.223Z,23.10
2018-03-27T03:01:49.441Z,23.80
2018-03-27T03:04:15.474Z,21.60
2018-03-27T03:06:41.583Z,21.97
2018-03-27T03:09:07.612Z,22.10
2018-03-27T03:11:33.757Z,22.77
2018-03-27T03:13:59.810Z,21.23
2018-03-27T03:16:25.888Z,22.07
2018-03-27T03:18:51.938Z,22.07
2018-03-27T03:21:17.942Z,23.90
2018-03-27T03:23:44.186Z,22.13
2018-03-27T03:26:10.257Z,21.40
2018-03-27T03:28:36.310Z,21.37
2018-03-27T03:31:02.364Z,21.30
2018-03-27T03:33:28.419Z,20.17
2018-03-27T03:35:54.616Z,22.57
2018-03-27T03:38:20.683Z,21.50
2018-03-27T03:40:46.753Z,18.33
2018-03-27T03:43:12.816Z,20.00
2018-03-27T03:45:38.903Z,17.20
2018-03-27T03:48:04.940Z,13.13
2018-03-27T03:50:30.984Z,22.33
2018-03-27T03:52:57.040Z,19.73
2018-03-27T03:55:23.085Z,21.57
2018-03-27T03:57:49.406Z,21.07
2018-03-27T04:00:15.423Z,20.70
2018-03-27T04:02:41.627Z,24.13
2018-03-27T04:05:07.913Z,23.93
2018-03-27T04:07:33.961Z,28.07
2018-03-27T04:10:00.029Z,25.97
2018-03-27T04:12:26.068Z,25.87
2018-03-27T04:14:52.141Z,22.30
2018-03-27T04:17:18.337Z,24.40
2018-03-27T04:19:44.401Z,24.83
2018-03-27T04:22:10.636Z,24.57
2018-03-27T04:24:36.707Z,22.20
2018-03-27T04:27:02.808Z,27.93
2018-03-27T04:29:28.909Z,21.13
2018-03-27T04:31:54.976Z,22.23
2018-03-27T04:34:21.040Z,24.80
2018-03-27T04:36:47.097Z,23.83
2018-03-27T04:39:13.149Z,23.80
2018-03-27T04:41:39.258Z,24.87
2018-03-27T04:44:05.321Z,24.23
2018-03-27T04:46:31.422Z,25.40
2018-03-27T04:48:57.500Z,25.17
2018-03-27T04:51:23.598Z,22.57
2018-03-27T04:53:49.658Z,24.33
2018-03-27T04:56:15.834Z,22.23
2018-03-27T04:58:41.876Z,23.33
2018-03-27T05:01:07.976Z,20.90
2018-03-27T05:03:34.018Z,22.37
2018-03-27T05:06:00.082Z,23.50
2018-03-27T05:08:26.152Z,23.10
2018-03-27T05:10:52.234Z,24.07
2018-03-27T05:13:18.275Z,20.57
2018-03-27T05:15:44.297Z,22.17
2018-03-27T05:18:10.369Z,22.67
2018-03-27T05:20:36.391Z,20.70
2018-03-27T05:23:02.609Z,24.53
2018-03-27T05:25:29.264Z,21.83
2018-03-27T05:27:55.320Z,26.07
2018-03-27T05:30:21.343Z,22.37
2018-03-27T05:32:47.418Z,25.10
2018-03-27T05:35:13.460Z,21.70
2018-03-27T05:37:39.498Z,24.97
2018-03-27T05:40:05.754Z,24.63
2018-03-27T05:42:31.812Z,23.83
2018-03-27T05:44:57.920Z,24.63
2018-03-27T05:47:23.947Z,25.00
2018-03-27T05:49:50.012Z,28.70
2018-03-27T05:52:16.144Z,25.50
2018-03-27T05:54:42.146Z,27.67
2018-03-27T05:57:08.210Z,27.53
2018-03-27T05:59:34.291Z,27.07
2018-03-27T06:02:00.386Z,29.90
2018-03-27T06:04:26.484Z,30.77
2018-03-27T06:06:52.570Z,26.20
2018-03-27T06:09:18.627Z,33.53
2018-03-27T06:11:44.702Z,34.00
2018-03-27T06:14:10.820Z,33.67
2018-03-27T06:16:37.094Z,34.27
2018-03-27T06:19:03.186Z,30.93
2018-03-27T06:21:29.268Z,36.07
2018-03-27T06:23:55.364Z,31.37
2018-03-27T06:26:21.456Z,33.07
2018-03-27T06:28:47.509Z,35.07
2018-03-27T06:31:13.673Z,34.60
2018-03-27T06:33:39.827Z,34.37
2018-03-27T06:36:05.912Z,35.73
2018-03-27T06:38:32.121Z,37.60
2018-03-27T06:40:58.202Z,37.57
2018-03-27T06:43:24.246Z,35.47
2018-03-27T06:45:50.300Z,38.07
2018-03-27T06:48:16.347Z,31.63
2018-03-27T06:50:42.428Z,38.00
2018-03-27T06:53:08.480Z,37.33
2018-03-27T06:55:34.662Z,34.83
2018-03-27T06:58:00.696Z,31.77
2018-03-27T07:00:26.792Z,39.10
2018-03-27T07:02:52.879Z,45.37
2018-03-27T07:05:18.950Z,42.67
2018-03-27T07:07:44.990Z,50.70
2018-03-27T07:10:11.055Z,45.57
2018-03-27T07:12:37.107Z,44.10
2018-03-27T07:15:03.241Z,37.80
2018-03-27T07:17:29.310Z,32.90
2018-03-27T07:19:55.389Z,34.33
2018-03-27T07:22:21.470Z,33.97
2018-03-27T07:24:47.538Z,39.73
2018-03-27T07:27:13.627Z,38.50
2018-03-27T07:29:39.686Z,41.77
2018-03-27T07:32:05.774Z,36.90
2018-03-27T07:34:31.815Z,36.17
2018-03-27T07:36:57.896Z,32.83
2018-03-27T07:39:23.959Z,42.43
2018-03-27T07:41:50.727Z,34.27
2018-03-27T07:44:16.833Z,39.90
2018-03-27T07:46:43.068Z,36.93
2018-03-27T07:49:09.123Z,37.70
2018-03-27T07:51:35.341Z,28.20
2018-03-27T07:54:01.411Z,30.53
2018-03-27T07:56:27.699Z,41.83
2018-03-27T07:58:53.756Z,39.73
2018-03-27T08:01:19.882Z,37.17
2018-03-27T08:03:45.963Z,37.60
2018-03-27T08:06:12.102Z,40.90
2018-03-27T08:08:38.208Z,39.10
2018-03-27T08:11:04.335Z,35.67
2018-03-27T08:13:45.234Z,39.37
2018-03-27T08:16:11.322Z,32.07
2018-03-27T08:18:37.557Z,35.97
2018-03-27T08:21:03.589Z,37.97
2018-03-27T08:23:29.706Z,36.73
2018-03-27T08:25:55.734Z,40.40
2018-03-27T08:28:21.841Z,29.57
2018-03-27T08:30:47.855Z,31.20
2018-03-27T08:33:13.949Z,32.13
2018-03-27T08:35:40.010Z,23.80
2018-03-27T08:38:06.071Z,24.60
2018-03-27T08:40:32.296Z,27.40
2018-03-27T08:42:58.374Z,27.17
2018-03-27T08:45:24.463Z,21.20
2018-03-27T08:47:50.528Z,29.00
2018-03-27T08:50:16.593Z,25.00
2018-03-27T08:52:42.634Z,24.97
2018-03-27T08:55:08.732Z,23.60
2018-03-27T08:57:34.762Z,20.47
2018-03-27T09:00:00.810Z,22.23
2018-03-27T09:02:27.064Z,20.07
2018-03-27T09:04:53.229Z,27.10
2018-03-27T09:07:19.293Z,19.73
2018-03-27T09:09:45.347Z,20.27
2018-03-27T09:12:11.478Z,19.03
2018-03-27T09:14:37.575Z,19.17
2018-03-27T09:17:03.757Z,20.97
2018-03-27T09:19:29.962Z,18.77
2018-03-27T09:21:55.987Z,21.60
2018-03-27T09:24:22.046Z,15.20
2018-03-27T09:26:48.079Z,15.27
2018-03-27T09:29:14.128Z,13.33
2018-03-27T09:31:40.168Z,12.33
2018-03-27T09:34:06.216Z,11.33
2018-03-27T09:36:32.430Z,11.47
2018-03-27T09:38:58.504Z,16.17
2018-03-27T09:41:24.579Z,13.27
2018-03-27T09:43:50.633Z,12.43
2018-03-27T09:46:16.674Z,14.63
2018-03-27T09:48:42.751Z,15.10
2018-03-27T09:51:08.829Z,15.97
2018-03-27T09:53:34.864Z,10.00
2018-03-27T09:56:00.897Z,12.87
2018-03-27T09:58:27.246Z,13.90
2018-03-27T10:00:53.305Z,13.30
2018-03-27T10:03:19.349Z,12.20
2018-03-27T10:05:45.406Z,12.10
2018-03-27T10:08:11.499Z,14.77
2018-03-27T10:10:37.565Z,11.93
2018-03-27T10:13:03.638Z,11.63
2018-03-27T10:15:29.723Z,14.40
2018-03-27T10:17:55.750Z,9.87
2018-03-27T10:20:21.803Z,11.27
2018-03-27T10:22:47.857Z,11.30
2018-03-27T10:25:13.890Z,10.27
2018-03-27T10:27:39.918Z,9.93
2018-03-27T10:30:06.204Z,10.60
2018-03-27T10:32:32.402Z,12.60
2018-03-27T10:34:58.438Z,11.17
2018-03-27T10:37:24.507Z,10.33
2018-03-27T10:39:50.592Z,11.37
2018-03-27T10:42:16.651Z,11.70
2018-03-27T10:44:42.800Z,10.70
2018-03-27T10:47:08.833Z,9.67
2018-03-27T10:49:34.980Z,10.10
2018-03-27T10:52:01.189Z,9.93
2018-03-27T10:54:27.237Z,10.97
2018-03-27T10:56:53.480Z,9.60
2018-03-27T10:59:19.516Z,8.63
2018-03-27T11:01:45.604Z,9.70
2018-03-27T11:04:11.617Z,10.53
2018-03-27T11:06:37.759Z,9.20
2018-03-27T11:09:03.805Z,9.13
2018-03-27T11:11:30.553Z,7.70
2018-03-27T11:13:56.863Z,10.70
2018-03-27T11:16:22.896Z,9.03
2018-03-27T11:18:48.930Z,10.67
2018-03-27T11:21:15.092Z,10.33
2018-03-27T11:23:41.182Z,8.53
2018-03-27T11:26:07.261Z,7.97
2018-03-27T11:28:33.303Z,9.20
2018-03-27T11:30:59.431Z,8.27
2018-03-27T11:33:25.509Z,8.97
2018-03-27T11:35:51.772Z,8.20
2018-03-27T11:38:17.808Z,7.50
2018-03-27T11:40:44.088Z,7.67
2018-03-27T11:43:10.132Z,8.17
2018-03-27T11:45:36.219Z,8.20
2018-03-27T11:48:02.283Z,9.07
2018-03-27T11:50:28.389Z,9.40
2018-03-27T11:52:54.443Z,9.53
2018-03-27T11:55:20.475Z,7.57
2018-03-27T11:57:46.540Z,7.97
2018-03-27T12:00:12.598Z,7.97
2018-03-27T12:02:38.746Z,6.33
2018-03-27T12:05:05.004Z,7.87
2018-03-27T12:07:31.063Z,5.57
2018-03-27T12:09:57.130Z,6.53
2018-03-27T12:12:23.173Z,6.17
2018-03-27T12:14:49.279Z,6.80
2018-03-27T12:17:15.374Z,5.67
2018-03-27T12:19:41.438Z,5.20
2018-03-27T12:22:07.536Z,6.20
2018-03-27T12:24:33.559Z,7.20
2018-03-27T12:26:59.622Z,5.67
2018-03-27T12:29:25.664Z,5.30
2018-03-27T12:31:51.702Z,6.07
2018-03-27T12:34:17.710Z,4.90
2018-03-27T12:36:43.790Z,6.00
2018-03-27T12:39:09.834Z,4.37
2018-03-27T12:41:35.922Z,5.40
2018-03-27T12:44:03.115Z,5.13
2018-03-27T12:46:29.170Z,5.30
2018-03-27T12:48:55.230Z,7.13
2018-03-27T12:51:21.342Z,5.13
2018-03-27T12:53:47.412Z,5.50
2018-03-27T12:56:13.434Z,5.90
2018-03-27T12:58:39.496Z,5.40
2018-03-27T13:01:05.561Z,4.33
2018-03-27T13:03:31.660Z,5.07
2018-03-27T13:05:57.981Z,5.20
2018-03-27T13:08:24.028Z,4.50
2018-03-27T13:10:50.106Z,6.40
2018-03-27T13:13:16.173Z,5.27
2018-03-27T13:15:42.328Z,5.40
2018-03-27T13:18:08.353Z,6.57
2018-03-27T13:20:34.373Z,6.20
2018-03-27T13:23:00.491Z,5.97
2018-03-27T13:25:26.497Z,6.40
2018-03-27T13:27:52.576Z,5.90
2018-03-27T13:30:18.610Z,4.53
2018-03-27T13:32:44.794Z,6.03
2018-03-27T13:35:10.839Z,6.00
2018-03-27T13:37:36.914Z,6.30
2018-03-27T13:40:02.999Z,6.70
2018-03-27T13:42:29.050Z,5.53
2018-03-27T13:44:55.269Z,5.30
2018-03-27T13:47:21.324Z,5.60
2018-03-27T13:49:47.407Z,5.33
2018-03-27T13:52:13.496Z,5.50
2018-03-27T13:54:39.510Z,6.87
2018-03-27T13:57:05.604Z,5.90
2018-03-27T13:59:31.698Z,6.47
2018-03-27T14:01:57.807Z,5.83
2018-03-27T14:04:23.864Z,6.77
2018-03-27T14:06:49.916Z,6.30
2018-03-27T14:09:16.178Z,7.20
2018-03-27T14:11:42.604Z,6.97
2018-03-27T14:14:08.650Z,6.17
2018-03-27T14:16:34.951Z,6.20
2018-03-27T14:19:01.014Z,7.13
2018-03-27T14:21:27.014Z,7.53
2018-03-27T14:23:53.134Z,7.73
2018-03-27T14:26:19.171Z,7.90
2018-03-27T14:28:45.256Z,7.93
2018-03-27T14:31:11.363Z,7.27
2018-03-27T14:33:37.407Z,7.23
2018-03-27T14:36:03.481Z,8.47
2018-03-27T14:38:29.556Z,6.63
2018-03-27T14:40:55.581Z,8.53
2018-03-27T14:43:21.669Z,8.10
2018-03-27T14:45:47.710Z,7.60
2018-03-27T14:48:13.752Z,7.93
2018-03-27T14:50:39.814Z,11.83
2018-03-27T14:53:05.960Z,7.83
2018-03-27T14:55:31.979Z,8.00
2018-03-27T14:57:58.080Z,9.23
2018-03-27T15:00:24.111Z,10.80
2018-03-27T15:02:50.206Z,8.70
2018-03-27T15:05:16.316Z,8.10
2018-03-27T15:07:42.379Z,9.83
2018-03-27T15:10:08.443Z,9.00
2018-03-27T15:12:34.466Z,8.87
2018-03-27T15:15:00.685Z,8.37
2018-03-27T15:17:26.719Z,8.00
2018-03-27T15:19:52.910Z,8.47
2018-03-27T15:22:18.960Z,8.63
2018-03-27T15:24:45.048Z,7.80
2018-03-27T15:27:11.111Z,8.80
2018-03-27T15:29:37.157Z,8.70
2018-03-27T15:32:03.233Z,8.30
2018-03-27T15:34:29.284Z,9.50
2018-03-27T15:36:55.390Z,9.33
2018-03-27T15:39:21.459Z,9.03
2018-03-27T15:41:47.617Z,8.80
2018-03-27T15:44:13.730Z,9.87
2018-03-27T15:46:39.830Z,9.37
2018-03-27T15:49:06.551Z,9.80
2018-03-27T15:51:32.707Z,8.77
2018-03-27T15:53:58.808Z,9.67
2018-03-27T15:56:24.891Z,9.10
2018-03-27T15:58:51.008Z,10.43
2018-03-27T16:01:17.057Z,10.20
2018-03-27T16:03:43.116Z,10.83
2018-03-27T16:06:09.219Z,9.77
2018-03-27T16:08:35.521Z,9.17
2018-03-27T16:11:01.662Z,9.33
2018-03-27T16:13:27.747Z,9.70
2018-03-27T16:15:53.914Z,9.63
2018-03-27T16:18:20.032Z,9.07
2018-03-27T16:20:46.064Z,9.17
2018-03-27T16:23:12.223Z,10.17
2018-03-27T16:25:38.294Z,9.83
2018-03-27T16:28:04.547Z,10.73
2018-03-27T16:30:30.684Z,11.13
2018-03-27T16:32:56.842Z,9.53
2018-03-27T16:35:22.908Z,11.37
2018-03-27T16:37:49.020Z,12.23
2018-03-27T16:40:15.134Z,10.70
2018-03-27T16:42:41.341Z,12.20
2018-03-27T16:45:07.476Z,11.20
2018-03-27T16:47:34.205Z,12.03
2018-03-27T16:50:00.406Z,16.03
2018-03-27T16:52:26.542Z,12.37
2018-03-27T16:54:52.639Z,11.60
2018-03-27T16:57:18.750Z,11.87
2018-03-27T16:59:44.807Z,12.23
2018-03-27T17:02:10.900Z,12.50
2018-03-27T17:04:37.103Z,14.87
2018-03-27T17:07:03.243Z,11.37
2018-03-27T17:09:29.554Z,12.47
2018-03-27T17:11:55.607Z,13.27
2018-03-27T17:14:21.685Z,11.83
2018-03-27T17:16:47.747Z,12.90
2018-03-27T17:19:13.906Z,12.33
2018-03-27T17:21:39.972Z,13.23
2018-03-27T17:24:06.072Z,11.73
2018-03-27T17:26:32.112Z,15.30
2018-03-27T17:28:58.325Z,14.23
2018-03-27T17:31:24.515Z,11.90
2018-03-27T17:33:50.669Z,10.13
2018-03-27T17:36:16.737Z,12.37
2018-03-27T17:38:42.964Z,15.53
2018-03-27T17:41:09.150Z,14.60
2018-03-27T17:43:35.245Z,11.83
2018-03-27T17:46:01.332Z,12.90
2018-03-27T17:48:27.475Z,14.47
2018-03-27T17:50:53.791Z,12.20
2018-03-27T17:53:19.898Z,12.47
2018-03-27T17:55:45.985Z,11.53
2018-03-27T17:58:12.072Z,11.60
2018-03-27T18:00:38.230Z,12.13
2018-03-27T18:03:05.390Z,10.60
2018-03-27T18:05:31.619Z,11.87
2018-03-27T18:07:57.740Z,11.27
2018-03-27T18:10:23.889Z,10.73
2018-03-27T18:12:50.111Z,10.50
2018-03-27T18:15:16.258Z,15.07
2018-03-27T18:17:42.374Z,20.27
2018-03-27T18:20:08.462Z,19.17
2018-03-27T18:22:34.725Z,19.50
2018-03-27T18:25:00.917Z,21.03
2018-03-27T18:27:27.026Z,23.27
2018-03-27T18:29:53.269Z,26.47
2018-03-27T18:32:19.619Z,23.57
2018-03-27T18:34:45.743Z,17.43
2018-03-27T18:37:12.254Z,13.73
2018-03-27T18:39:38.712Z,14.10
2018-03-27T18:42:05.136Z,13.47
2018-03-27T18:44:32.153Z,12.67
2018-03-27T18:46:58.307Z,12.93
2018-03-27T18:49:24.572Z,14.77
2018-03-27T18:51:50.662Z,14.13
2018-03-27T18:54:16.767Z,14.53
2018-03-27T18:56:42.950Z,15.43
2018-03-27T18:59:09.650Z,14.57
2018-03-27T19:01:36.598Z,15.00
2018-03-27T19:04:02.981Z,14.97
2018-03-27T19:06:30.089Z,14.87
2018-03-27T19:08:56.154Z,13.80
2018-03-27T19:11:22.352Z,13.30
2018-03-27T19:13:49.298Z,15.43
2018-03-27T19:16:15.412Z,12.67
2018-03-27T19:18:41.514Z,14.40
2018-03-27T19:21:07.710Z,13.00
2018-03-27T19:23:33.803Z,12.33
2018-03-27T19:25:59.874Z,13.53
2018-03-27T19:28:26.076Z,14.47
2018-03-27T19:30:52.162Z,16.53
2018-03-27T19:33:18.240Z,14.57
2018-03-27T19:35:44.345Z,16.07
2018-03-27T19:38:11.110Z,13.93
2018-03-27T19:40:37.374Z,14.80
2018-03-27T19:43:03.524Z,16.43
2018-03-27T19:45:29.870Z,15.83
2018-03-27T19:47:57.110Z,34.17
2018-03-27T19:50:24.139Z,17.47
2018-03-27T19:52:50.239Z,14.37
2018-03-27T19:55:16.744Z,15.00
2018-03-27T19:57:43.861Z,14.70
2018-03-27T20:00:10.041Z,14.10
2018-03-27T20:02:36.159Z,15.47
2018-03-27T20:05:02.493Z,14.60
2018-03-27T20:07:28.660Z,17.83
2018-03-27T20:09:54.871Z,17.30
2018-03-27T20:12:21.066Z,14.20
2018-03-27T20:14:47.151Z,17.20
2018-03-27T20:17:13.243Z,15.63
2018-03-27T20:19:39.490Z,16.70
2018-03-27T20:22:05.609Z,17.23
2018-03-27T20:24:31.756Z,16.57
2018-03-27T20:26:57.890Z,17.70
2018-03-27T20:29:24.080Z,15.03
2018-03-27T20:31:50.193Z,15.13
2018-03-27T20:34:16.364Z,15.70
2018-03-27T20:36:42.427Z,18.13
2018-03-27T20:39:08.536Z,17.03
2018-03-27T20:41:34.667Z,18.60
2018-03-27T20:44:00.827Z,18.53
2018-03-27T20:46:27.014Z,16.97
2018-03-27T20:48:53.142Z,16.40
2018-03-27T20:51:19.345Z,17.33
2018-03-27T20:53:45.427Z,18.87
2018-03-27T20:56:11.486Z,17.60
2018-03-27T20:58:37.622Z,19.03
2018-03-27T21:01:03.731Z,19.80
2018-03-27T21:03:29.984Z,19.87
2018-03-27T21:05:56.079Z,20.40
2018-03-27T21:08:22.232Z,18.03
2018-03-27T21:10:49.374Z,19.93
2018-03-27T21:13:15.510Z,21.13
2018-03-27T21:15:41.637Z,21.93
2018-03-27T21:18:07.715Z,20.83
2018-03-27T21:20:34.801Z,18.63
2018-03-27T21:23:00.936Z,21.30
2018-03-27T21:25:27.005Z,20.90
2018-03-27T21:27:53.072Z,21.73
2018-03-27T21:30:19.199Z,19.53
2018-03-27T21:32:45.279Z,21.50
2018-03-27T21:35:11.395Z,19.77
2018-03-27T21:37:37.688Z,22.63
2018-03-27T21:40:03.981Z,17.53
2018-03-27T21:42:30.049Z,22.00
2018-03-27T21:44:56.236Z,16.43
2018-03-27T21:47:22.345Z,22.10
2018-03-27T21:49:48.394Z,21.50
2018-03-27T21:52:15.203Z,23.20
2018-03-27T21:54:41.274Z,23.23
2018-03-27T21:57:07.321Z,18.80
2018-03-27T21:59:33.398Z,19.20
2018-03-27T22:01:59.532Z,26.63
2018-03-27T22:04:25.658Z,24.93
2018-03-27T22:06:51.877Z,18.43
2018-03-27T22:09:17.932Z,23.27
2018-03-27T22:11:44.038Z,23.40
2018-03-27T22:14:10.100Z,20.13
2018-03-27T22:16:36.275Z,17.83
2018-03-27T22:19:02.311Z,24.10
2018-03-27T22:21:28.331Z,18.37
2018-03-27T22:23:54.364Z,22.33
2018-03-27T22:26:20.410Z,19.97
2018-03-27T22:28:46.480Z,24.70
2018-03-27T22:31:12.495Z,22.67
2018-03-27T22:33:38.565Z,23.20
2018-03-27T22:36:04.733Z,18.60
2018-03-27T22:38:30.786Z,25.37
2018-03-27T22:40:56.871Z,20.50
2018-03-27T22:43:22.967Z,23.97
2018-03-27T22:45:49.031Z,23.53
2018-03-27T22:48:15.134Z,29.97
2018-03-27T22:50:41.212Z,23.57
2018-03-27T22:53:07.237Z,18.73
2018-03-27T22:55:33.301Z,26.93
2018-03-27T22:57:59.364Z,21.20
2018-03-27T23:00:25.438Z,18.90
2018-03-27T23:02:51.489Z,25.00
2018-03-27T23:05:17.565Z,20.03
2018-03-27T23:07:43.819Z,19.37
2018-03-27T23:10:09.902Z,21.73
2018-03-27T23:12:35.958Z,22.43
2018-03-27T23:15:02.102Z,22.00
2018-03-27T23:17:28.222Z,26.07
2018-03-27T23:19:54.261Z,24.57
2018-03-27T23:22:30.518Z,23.73
2018-03-27T23:24:56.578Z,23.70
2018-03-27T23:27:22.612Z,22.83
2018-03-27T23:29:48.680Z,24.67
2018-03-27T23:32:14.739Z,22.03
2018-03-27T23:34:40.885Z,25.10
2018-03-27T23:37:06.954Z,25.17
2018-03-27T23:39:33.025Z,24.80
2018-03-27T23:41:59.138Z,22.90
2018-03-27T23:44:25.199Z,19.63
2018-03-27T23:46:51.484Z,26.13
2018-03-27T23:49:17.532Z,25.80
2018-03-27T23:51:43.587Z,27.07
2018-03-27T23:54:09.799Z,25.97
2018-03-27T23:56:35.919Z,23.30
2018-03-27T23:59:01.934Z,26.47
